aviador You're here:

KPBG Decoded Metar

PLATTSBURGH in NY, USA
Report Time2017-05-23 19:53:00
UTC Time2017-05-23 20:33:50
Flight Rules vfr VFR
Wind150° at 08 kt
W.Decomp.*RWY 17: 8.0 kt HW 0.7 kt LCW
W.Rank150° ranks 2
Current wind is below 150° avg. (9.8)
Visibility9999 m
Phenomena:N/A
Clouds:Overcast 070 Hf
Expected CloudBase > 3,600 ft AGL from Temp-Dew spread
Ceiling7,000 ft
Temp18°C (ISA +3)
Dew Point09°C (56% RH)
AAT14.9°C
QNH1009 hPa
Density Alt935 ft
Elevation236 ft
Report Wrong Elevation
Raw Report
KPBG 231953Z AUTO 15008KT 10SM OVC070 18/09 A2981 RMK AO2 SLP095
T01830094=

Extra information for KPBG:More info

Metar Taf Metar & Taf Last 4 Metars F.Rules Stats Wind Profile Meteogram Temp Stats Airport Information Weather charts Add Link Nearby VenuesMetar ALERT Operation Metar Decoded Social comments

AIRNAV info for KPBG